This is the latest recevied weather packets stored in our database for station/object W2SRH. If no packets are shown the sender has not sent any weather packets the latest 10 day(s).
| Time | Temp. | Humidity | Pressure | Rain* | Wind** | Luminosity | Snow |
|---|---|---|---|---|---|---|---|
| 1778135344 | 11.11° C | 88% | 1001.6 hPa | 2.03 mm | 0.45 m/s, 337° | - | - |
| 1778134745 | 11.11° C | 87% | 1002 hPa | 1.78 mm | 0.89 m/s, 321° | - | - |
| 1778134248 | 11.67° C | 87% | 1001.3 hPa | 1.02 mm | 0.45 m/s, 1° | - | - |
| 1778134238 | 12.22° C | 85% | 1001.2 hPa | 0.25 mm | 0 m/s | - | - |
| 1778134144 | 11.11° C | 85% | 1001.4 hPa | 1.78 mm | 0.45 m/s, 15° | - | - |
| 1778133544 | 11.67° C | 87% | 1001.9 hPa | 1.27 mm | 1.34 m/s, 344° | - | - |
| 1778132944 | 11.67° C | 87% | 1001.3 hPa | 1.02 mm | 0.45 m/s, 1° | - | - |
| 1778132344 | 12.22° C | 85% | 1001.2 hPa | 0.25 mm | 0 m/s | - | - |
| 1778132319 | 12.78° C | 84% | 1000.9 hPa | 0 mm | 0 m/s | - | - |
| 1778131744 | 12.78° C | 84% | 1001.5 hPa | 0 mm | 0.89 m/s, 333° | - | - |
| 1778131144 | 12.78° C | 83% | 1000.8 hPa | 0 mm | 0.45 m/s, 16° | - | - |
| 1778130544 | 12.78° C | 84% | 1000.9 hPa | 0 mm | 0 m/s | - | - |
| 1778129944 | 13.33° C | 86% | 1000.6 hPa | 0 mm | 0.45 m/s, 46° | - | - |
| 1778129344 | 13.33° C | 85% | 1000.5 hPa | 0 mm | 0 m/s | - | - |
| 1778128745 | 13.33° C | 85% | 1000.5 hPa | 0 mm | 0.45 m/s, 14° | - | - |
| 1778128146 | 13.89° C | 84% | 1000.6 hPa | 0 mm | 0.89 m/s, 18° | - | - |
| 1778127545 | 13.89° C | 84% | 1001.1 hPa | 0 mm | 0.89 m/s, 337° | - | - |
| 1778126947 | 13.89° C | 85% | 1000.9 hPa | 0 mm | 0.89 m/s, 331° | - | - |
| 1778126345 | 13.89° C | 85% | 1000.8 hPa | 0 mm | 0.89 m/s, 343° | - | - |
| 1778125745 | 14.44° C | 86% | 1000.6 hPa | 0 mm | 0.45 m/s, 2° | - | - |
| 1778125146 | 14.44° C | 86% | 1000.5 hPa | 0.76 mm | 0.45 m/s, 29° | - | - |
| 1778124546 | 15° C | 85% | 1000.5 hPa | 0.76 mm | 0.89 m/s, 332° | - | - |
| 1778123946 | 16.67° C | 88% | 1000.3 hPa | 0.76 mm | 0.89 m/s, 25° | - | - |
| 1778123345 | 17.22° C | 90% | 999.9 hPa | 1.02 mm | 0.45 m/s, 328° | - | - |
| 1778122744 | 17.22° C | 90% | 999.8 hPa | 2.03 mm | 0.45 m/s, 296° | - | - |
* Rain latest hour (hover to see other rain measurements)
** Current wind speed in m/s (hover to see current wind gust speed)